Flight Track Log - Related Links

Times and Time Zones

All times are in EDT time to prevent confusion due to time zone crossing. See the N792XJ flight status page for this flight to view local times or setup timezone preferences in your user account.


Time Position Orientation Groundspeed Altitude Reporting Facility
EDT Latitude Longitude Course Direction KTS MPH feet Rate Location/Type
Tue 10:55:50 PM 30.1497 -97.7536 327° Northwest 264 304 6,500  Level Houston Center
Tue 10:56:50 PM 30.2119 -97.8039 325° Northwest 278 320 9,300 2,430 Climbing Houston Center
Tue 10:57:51 PM 30.2903 -97.8289 345° North 290 334 11,400 2,311 Climbing Houston Center
Tue 10:58:52 PM 30.3753 -97.8572 344° North 310 357 14,000 2,410 Climbing Houston Center
Tue 10:59:53 PM 30.4614 -97.8881 343° North 317 365 16,300 2,066 Climbing Houston Center
Tue 11:00:00 PM 30.8453 -97.8821 327° Northwest  Level FlightAware Approximate
Tue 11:00:54 PM 30.5542 -97.9208 343° North 337 388 18,200  Level Houston Center
Tue 11:01:00 PM 30.9565 -97.9673 327° Northwest  Level FlightAware Approximate
Tue 11:01:55 PM 30.6525 -97.9561 343° North 358 412 20,200  Level Houston Center
Tue 11:02:56 PM 30.7556 -97.9747 351° North 377 434 22,200 1,967 Climbing Houston Center
Tue 11:03:57 PM 30.8442 -97.9044 34° Northeast 393 452 24,200 1,820 Climbing Houston Center
Tue 11:04:58 PM 30.9181 -97.8022 50° Northeast 403 464 25,900 1,721 Climbing Houston Center
Tue 11:05:59 PM 30.9953 -97.6964 50° Northeast 418 481 27,700 1,672 Climbing Houston Center
Tue 11:07:00 PM 31.0758 -97.5881 49° Northeast 430 495 29,300 1,537 Climbing Houston Center
Tue 11:08:00 PM 31.1578 -97.4739 50° Northeast 444 511 30,800 1,587 Climbing Houston Center
Tue 11:09:01 PM 31.2431 -97.3581 49° Northeast 455 524 32,500 1,525 Climbing Houston Center
Tue 11:10:02 PM 31.3283 -97.2403 50° Northeast 464 534 33,900 1,230 Climbing Houston Center
Tue 11:11:03 PM 31.4142 -97.1194 50° Northeast 472 543 35,000 1,279 Climbing Houston Center
Tue 11:12:04 PM 31.5039 -96.9956 50° Northeast 486 559 36,500 1,475 Climbing Houston Center
Tue 11:13:05 PM 31.5925 -96.8711 50° Northeast 491 565 38,000 1,475 Climbing Houston Center
Tue 11:14:06 PM 31.6814 -96.7469 50° Northeast 475 547 39,500 1,339 Climbing Fort Worth Center
Tue 11:15:06 PM 31.7642 -96.6314 50° Northeast 474 545 40,700 900 Climbing Fort Worth Center
Tue 11:16:06 PM 31.8489 -96.5083 51° Northeast 479 551 41,300 545 Climbing Fort Worth Center
Tue 11:17:07 PM 31.9275 -96.4000 49° Northeast 479 551 41,800 450 Climbing Fort Worth Center
Tue 11:18:06 PM 32.0142 -96.2789 50° Northeast 484 557 42,200 504 Climbing Fort Worth Center
Tue 11:19:06 PM 32.1006 -96.1481 52° Northeast 490 564 42,800 600 Climbing Fort Worth Center
Tue 11:20:06 PM 32.1892 -96.0264 49° Northeast 490 564 43,400 550 Climbing Fort Worth Center
Tue 11:21:06 PM 32.2836 -95.8897 51° Northeast 481 554 43,900 500 Climbing Fort Worth Center
Tue 11:22:06 PM 32.3697 -95.7653 51° Northeast 481 554 44,400 367 Climbing Fort Worth Center
Tue 11:24:06 PM 32.5289 -95.5111 53° Northeast 476 548 45,000 200 Climbing Fort Worth Center
Tue 11:25:06 PM 32.5914 -95.3644 63° Northeast 481 554 45,000  Level Fort Worth Center
Tue 11:26:06 PM 32.6514 -95.2175 64° Northeast 486 559 45,000  Level Fort Worth Center
Tue 11:27:06 PM 32.7133 -95.0678 64° Northeast 491 565 45,000  Level Fort Worth Center
Tue 11:28:06 PM 32.7753 -94.9156 64° Northeast 497 572 45,000  Level Fort Worth Center
Tue 11:29:06 PM 32.8369 -94.7656 64° Northeast 497 572 45,000  Level Fort Worth Center
Tue 11:30:06 PM 32.9003 -94.6103 64° Northeast 503 579 45,000  Level Fort Worth Center
Tue 11:31:06 PM 32.9594 -94.4572 65° Northeast 508 585 45,000  Level Fort Worth Center
Tue 11:32:06 PM 33.0225 -94.3042 64° Northeast 508 585 45,000  Level Fort Worth Center
Tue 11:33:06 PM 33.0853 -94.1456 65° Northeast 508 585 45,000  Level Fort Worth Center
Tue 11:34:06 PM 33.1417 -93.9897 67° East 513 590 45,000  Level Fort Worth Center
Tue 11:35:06 PM 33.2019 -93.8286 66° East 520 598 45,000  Level Fort Worth Center
Tue 11:36:06 PM 33.2683 -93.6694 63° Northeast 525 604 45,000  Level Fort Worth Center
Tue 11:37:06 PM 33.3322 -93.5125 64° Northeast 525 604 45,000  Level Fort Worth Center
Tue 11:38:06 PM 33.3942 -93.3581 64° Northeast 519 597 45,000  Level Fort Worth Center
Tue 11:40:33 PM 33.5378 -92.9889 65° Northeast 504 580 45,000  Level Memphis Center
Tue 11:41:33 PM 33.5972 -92.8311 66° East 517 595 45,000  Level Memphis Center
Tue 11:42:33 PM 33.6608 -92.6683 65° Northeast 517 595 45,000  Level Memphis Center
Tue 11:43:33 PM 33.7222 -92.5100 65° Northeast 517 595 45,000  Level Memphis Center
Tue 11:44:33 PM 33.7833 -92.3442 66° East 522 601 45,000  Level Memphis Center
Tue 11:45:33 PM 33.8442 -92.1856 65° Northeast 522 601 45,000  Level Memphis Center
Tue 11:46:33 PM 33.9050 -92.0214 66° East 522 601 45,000  Level Memphis Center
Tue 11:47:33 PM 33.9656 -91.8575 66° East 522 601 45,000  Level Memphis Center
Tue 11:48:33 PM 34.0281 -91.6806 67° East 517 595 45,000  Level Memphis Center
Tue 11:49:33 PM 34.0839 -91.5133 68° East 517 595 45,000  Level Memphis Center
Tue 11:51:00 PM 34.1488 -91.2941 70° East  Level FlightAware Approximate
Tue 11:53:33 PM 34.3242 -90.8575 66° East 528 608 45,000  Level Memphis Center
Tue 11:55:33 PM 34.4439 -90.5283 66° East 528 608 45,000  Level Memphis Center
Tue 11:56:33 PM 34.5025 -90.3647 66° East 533 613 45,000  Level Memphis Center
Tue 11:57:33 PM 34.5586 -90.1958 68° East 533 613 45,000  Level Memphis Center
Tue 11:58:00 PM 34.5082 -90.2542 66° East  Level FlightAware Approximate
Tue 11:58:33 PM 34.6106 -90.0492 67° East 533 613 45,000  Level Memphis Center
Tue 11:59:00 PM 34.5624 -90.1068 66° East  Level FlightAware Approximate
Tue 11:59:33 PM 34.6664 -89.8825 68° East 538 619 45,000  Level Memphis Center
Wed 12:00:33 AM 34.7261 -89.7053 68° East 538 619 45,000  Level Memphis Center
Wed 12:01:33 AM 34.7917 -89.5150 67° East 553 636 45,000  Level Memphis Center
Wed 12:02:33 AM 34.8508 -89.3525 66° East 548 631 45,000  Level Memphis Center
Wed 12:03:33 AM 34.9078 -89.1822 68° East 532 612 45,000  Level Memphis Center
Wed 12:04:33 AM 34.9606 -89.0319 67° East 537 618 45,000  Level Memphis Center
Wed 12:05:33 AM 35.0150 -88.8636 68° East 537 618 45,000  Level Memphis Center
Wed 12:06:33 AM 35.0733 -88.7003 66° East 537 618 45,000  Level Memphis Center
Wed 12:07:33 AM 35.1294 -88.5292 68° East 537 618 45,000  Level Memphis Center
Wed 12:08:33 AM 35.1853 -88.3678 67° East 524 603 45,000  Level Memphis Center
Wed 12:09:33 AM 35.2408 -88.2011 68° East 524 603 45,000  Level Memphis Center
Wed 12:10:33 AM 35.2983 -88.0317 67° East 524 603 45,000  Level Memphis Center
Wed 12:11:33 AM 35.3533 -87.8597 69° East 529 609 45,000  Level Memphis Center
Wed 12:12:33 AM 35.4103 -87.6797 69° East 524 603 45,000  Level Memphis Center
Wed 12:13:33 AM 35.4647 -87.5072 69° East 524 603 45,000  Level Memphis Center
Wed 12:14:33 AM 35.5172 -87.3394 69° East 524 603 45,000  Level Memphis Center
Wed 12:15:33 AM 35.5733 -87.1689 68° East 529 609 45,000  Level Memphis Center
Wed 12:16:33 AM 35.6253 -87.0011 69° East 536 617 45,000  Level Memphis Center
Wed 12:17:33 AM 35.6789 -86.8300 69° East 531 611 45,000  Level Memphis Center
Wed 12:18:33 AM 35.7303 -86.6592 70° East 536 617 45,000  Level Memphis Center
Wed 12:19:33 AM 35.7856 -86.4903 68° East 536 617 45,000  Level Memphis Center
Wed 12:20:33 AM 35.8306 -86.3372 70° East 531 611 45,000  Level Memphis Center
Wed 12:22:06 AM 35.9181 -86.0600 69° East 536 617 45,000  Level Indianapolis Center
Wed 12:23:06 AM 35.9686 -85.8883 70° East 533 613 45,000  Level Indianapolis Center
Wed 12:24:07 AM 36.0144 -85.7447 68° East 528 608 45,000  Level Indianapolis Center
Wed 12:25:08 AM 36.0758 -85.5381 70° East 529 609 45,000  Level Indianapolis Center
Wed 12:27:00 AM 36.1440 -85.2412 69° East  Level FlightAware Approximate
Wed 12:30:11 AM 36.3314 -84.6719 71° East 533 613 45,000  Level Indianapolis Center
Wed 12:31:11 AM 36.3819 -84.4992 70° East 530 610 45,000  Level Indianapolis Center
Wed 12:32:12 AM 36.4317 -84.3253 70° East 531 611 45,000  Level Indianapolis Center
Wed 12:33:13 AM 36.4814 -84.1522 70° East 530 610 45,000  Level Indianapolis Center
Wed 12:34:00 AM 36.4666 -84.1564 70° East  Level FlightAware Approximate
Wed 12:34:13 AM 36.5292 -84.0044 68° East 528 608 45,000  Level Indianapolis Center
Wed 12:35:00 AM 36.5106 -84.0002 71° East  Level FlightAware Approximate
Wed 12:35:14 AM 36.5858 -83.8372 67° East 525 604 45,000  Level Indianapolis Center
Wed 12:36:14 AM 36.6461 -83.6725 65° Northeast 523 602 45,000  Level Indianapolis Center
Wed 12:37:15 AM 36.7006 -83.5050 68° East 521 600 45,000  Level Indianapolis Center
Wed 12:38:15 AM 36.7647 -83.3100 68° East 519 597 45,000  Level Indianapolis Center
Wed 12:39:16 AM 36.8197 -83.1425 68° East 519 597 45,000  Level Indianapolis Center
Wed 12:40:16 AM 36.8731 -82.9811 68° East 522 601 45,000  Level Indianapolis Center
Wed 12:41:17 AM 36.9322 -82.8186 65° Northeast 514 592 45,000  Level Indianapolis Center
Wed 12:42:18 AM 36.9811 -82.6492 70° East 527 606 45,000  Level Indianapolis Center
Wed 12:43:18 AM 37.0344 -82.4833 68° East 517 595 45,000  Level Indianapolis Center
Wed 12:44:19 AM 37.0897 -82.3150 68° East 521 600 45,000  Level Indianapolis Center
Wed 12:45:19 AM 37.1442 -82.1472 68° East 520 598 45,000  Level Indianapolis Center
Wed 12:46:19 AM 37.1978 -81.9789 68° East 519 597 45,000  Level Indianapolis Center
Wed 12:47:20 AM 37.2517 -81.8086 68° East 524 603 45,000  Level Indianapolis Center
Wed 12:48:20 AM 37.3033 -81.6392 69° East 520 598 45,000  Level Indianapolis Center
Wed 12:49:21 AM 37.3617 -81.4550 68° East 519 597 45,000  Level Indianapolis Center
Wed 12:50:21 AM 37.4131 -81.2889 69° East 522 601 45,000  Level Indianapolis Center
Wed 12:51:22 AM 37.4625 -81.1253 69° East 517 595 45,000  Level Indianapolis Center
Wed 12:52:22 AM 37.5117 -80.9625 69° East 512 589 45,000  Level Indianapolis Center
Wed 12:53:22 AM 37.5625 -80.7997 68° East 512 589 45,000  Level Indianapolis Center
Wed 12:54:23 AM 37.6206 -80.6022 70° East 513 590 45,000  Level Indianapolis Center
Wed 12:56:24 AM 37.7192 -80.2744 69° East 512 589 45,000  Level Indianapolis Center
Wed 12:57:24 AM 37.7683 -80.1100 69° East 512 589 45,000  Level Indianapolis Center
Wed 12:58:24 AM 37.8169 -79.9464 69° East 509 586 45,000  Level Indianapolis Center
Wed 12:59:25 AM 37.8658 -79.7831 69° East 507 583 45,000  Level Indianapolis Center
Wed 01:00:25 AM 37.9125 -79.6181 70° East 506 582 45,000  Level Indianapolis Center
Wed 01:01:25 AM 37.9603 -79.4539 70° East 505 581 45,000  Level Indianapolis Center
Wed 01:02:26 AM 38.0078 -79.2886 70° East 508 585 45,000  Level Indianapolis Center
Wed 01:03:37 AM 38.0772 -79.0606 69° East 504 580 45,000  Level Washington Center
Wed 01:04:38 AM 38.1236 -78.8939 70° East 499 574 45,000  Level Washington Center
Wed 01:05:37 AM 38.1761 -78.7244 68° East 499 574 45,000  Level Washington Center
Wed 01:06:40 AM 38.2222 -78.5572 71° East 499 574 45,000  Level Washington Center
Wed 01:07:37 AM 38.2658 -78.3844 72° East 499 574 45,000  Level Washington Center
Wed 01:08:39 AM 38.3114 -78.2142 71° East 499 574 45,000  Level Washington Center
Wed 01:09:37 AM 38.3567 -78.0436 71° East 499 574 45,000  Level Washington Center
Wed 01:10:37 AM 38.4039 -77.8728 71° East 504 580 45,000  Level Washington Center
Wed 01:11:37 AM 38.4817 -77.7214 57° Northeast 496 571 45,000  Level Washington Center
Wed 01:12:39 AM 38.5717 -77.5781 51° Northeast 501 577 45,000  Level Washington Center
Wed 01:13:37 AM 38.6617 -77.4342 51° Northeast 507 583 45,000 -51 Level Washington Center
Wed 01:14:37 AM 38.7511 -77.2953 50° Northeast 513 590 44,900 -689 Descending Washington Center
Wed 01:15:39 AM 38.8386 -77.1508 52° Northeast 513 590 43,600 -1,854 Descending Washington Center
Wed 01:16:40 AM 38.9278 -77.0139 50° Northeast 508 585 41,100 -2,644 Descending Washington Center
Wed 01:17:37 AM 39.0108 -76.8767 52° Northeast 503 579 38,400 -2,821 Descending Washington Center
Wed 01:18:37 AM 39.0956 -76.7417 51° Northeast 493 567 35,600 -2,700 Descending Washington Center
Wed 01:19:37 AM 39.1717 -76.6169 52° Northeast 473 544 33,000 -2,508 Descending Washington Center
Wed 01:20:39 AM 39.2519 -76.4894 51° Northeast 460 529 30,500 -2,600 Descending Washington Center
Wed 01:21:37 AM 39.3342 -76.3564 51° Northeast 460 529 27,800 -2,739 Descending Washington Center
Wed 01:23:43 AM 39.5000 -76.0833 52° Northeast 451 519 22,100 -2,613 Descending Philadelphia TRACON
Wed 01:24:43 AM 39.5833 -75.9500 51° Northeast 438 504 19,700 -2,350 Descending Philadelphia TRACON
Wed 01:25:43 AM 39.6500 -75.8333 53° Northeast 425 489 17,400 -2,350 Descending Philadelphia TRACON
Wed 01:26:43 AM 39.7167 -75.7167 53° Northeast 411 473 15,000 -2,200 Descending Philadelphia TRACON
Wed 01:27:43 AM 39.8000 -75.6000 47° Northeast 392 451 13,000 -1,000 Descending Philadelphia TRACON
Wed 01:28:43 AM 39.8833 -75.5167 37° Northeast 404 465 13,000  Level Philadelphia TRACON
Wed 01:29:43 AM 39.9667 -75.4333 37° Northeast 402 463 13,000  Level Philadelphia TRACON
Wed 01:30:43 AM 40.0667 -75.3500 33° Northeast 379 436 13,000  Level Philadelphia TRACON
Wed 01:31:43 AM 40.1333 -75.2833 37° Northeast 328 377 13,000 -772 Level Philadelphia TRACON
Wed 01:33:34 AM 40.2667 -75.1667 34° Northeast 296 341 10,800 -1,228 Descending New York TRACON
Wed 01:34:34 AM 40.3167 -75.0833 52° Northeast 281 323 9,500 -923 Descending New York TRACON
Wed 01:36:00 AM 40.4515 -74.9199 52° Northeast  Level FlightAware Approximate
Wed 01:37:41 AM 40.4333 -74.8167 52° Northeast 272 313 7,000  Level New York TRACON
Wed 01:38:41 AM 40.4833 -74.7333 52° Northeast 268 308 6,500 -750 Descending New York TRACON
Wed 01:39:41 AM 40.5167 -74.6667 57° Northeast 265 305 5,500 -1,050 Descending New York TRACON
Wed 01:40:41 AM 40.5500 -74.5833 62° Northeast 253 291 4,400 -1,150 Descending New York TRACON
Wed 01:41:41 AM 40.6000 -74.5000 52° Northeast 251 289 3,200 -850 Descending New York TRACON
Wed 01:42:41 AM 40.6333 -74.4333 57° Northeast 250 288 2,700 -600 Descending New York TRACON
Wed 01:43:41 AM 40.6667 -74.3500 62° Northeast 251 289 2,000 -347 Descending New York TRACON
Wed 01:44:42 AM 40.7167 -74.2833 45° Northeast 247 284 2,000 -261 Level New York TRACON
Wed 01:45:36 AM 40.7500 -74.2167 57° Northeast 246 283 1,500 -278 Descending New York TRACON
Wed 01:46:30 AM 40.7833 -74.1667 49° Northeast 202 232 1,500 -211 Level New York TRACON
Wed 01:47:30 AM 40.8167 -74.1167 49° Northeast 153 176 1,100 -650 Descending New York TRACON
Wed 01:48:30 AM 40.8333 -74.0833 57° Northeast 128 147 200 -900 Descending New York TRACON
Wed 01:50:00 AM 40.8500 -74.0500 57° Northeast  Level FlightAware Approximate

Login

Don't have an account? Register now (free) for customized features, flight alerts, and more!